Time;durP1;ratioP1;P1;durP2;ratioP2;P2;SDS_P1;SDS_P2;PMS_P1;PMS_P2;Temp;Humidity;BMP_temperature;BMP_pressure;BME280_temperature;BME280_humidity;BME280_pressure;Samples;Min_cycle;Max_cycle;Signal;HPM_P1;HPM_P2
2022/03/20 00:00:08;;;;;;;10.40;5.93;;;0.90;99.90;;;;;;5149054;28;20102;-76
2022/03/20 00:02:40;;;;;;;11.73;5.80;;;0.90;99.90;;;;;;5131578;28;20386;-76
2022/03/20 00:05:11;;;;;;;16.75;5.55;;;1.00;99.90;;;;;;5149035;28;20030;-76
2022/03/20 00:07:44;;;;;;;18.35;6.50;;;1.00;99.90;;;;;;5131841;28;20033;-76
2022/03/20 00:10:16;;;;;;;12.43;6.43;;;1.10;99.90;;;;;;5131868;28;20498;-76
2022/03/20 00:12:47;;;;;;;13.18;6.80;;;1.10;99.90;;;;;;5131876;28;20038;-76
2022/03/20 00:15:18;;;;;;;19.13;7.10;;;1.10;99.90;;;;;;5149395;28;20035;-76
2022/03/20 00:17:49;;;;;;;15.95;6.65;;;1.20;99.90;;;;;;5149137;28;20022;-76
2022/03/20 00:20:20;;;;;;;20.63;7.15;;;1.20;99.90;;;;;;5149502;28;20027;-76
2022/03/20 00:22:52;;;;;;;15.07;7.40;;;1.20;99.90;;;;;;5149014;28;20031;-76
2022/03/20 00:25:23;;;;;;;16.23;6.03;;;1.30;99.90;;;;;;5149020;28;20032;-78
2022/03/20 00:27:54;;;;;;;19.25;6.22;;;1.20;99.90;;;;;;5148939;28;20078;-77
2022/03/20 00:30:24;;;;;;;21.92;6.72;;;1.30;99.90;;;;;;5148886;28;20435;-76
2022/03/20 00:32:56;;;;;;;15.18;6.10;;;1.50;99.90;;;;;;5131378;28;20395;-76
2022/03/20 00:35:26;;;;;;;17.23;6.57;;;1.50;99.90;;;;;;5131344;28;20117;-77
2022/03/20 00:37:58;;;;;;;10.40;4.70;;;1.60;99.90;;;;;;5148217;28;20102;-76
2022/03/20 00:40:29;;;;;;;13.35;5.03;;;1.70;99.90;;;;;;5148661;28;20018;-76
2022/03/20 00:43:00;;;;;;;12.25;4.55;;;1.80;99.90;;;;;;5131343;28;20042;-76
2022/03/20 00:45:31;;;;;;;18.58;4.90;;;1.80;99.90;;;;;;5131280;28;20050;-76
2022/03/20 00:48:02;;;;;;;12.95;4.72;;;1.80;99.90;;;;;;5148564;28;20035;-76
2022/03/20 00:50:33;;;;;;;10.63;5.55;;;1.60;99.90;;;;;;5148631;28;20023;-76
2022/03/20 00:53:04;;;;;;;11.77;5.40;;;1.70;99.90;;;;;;5131225;28;20046;-76
2022/03/20 00:55:35;;;;;;;18.90;6.28;;;1.60;99.90;;;;;;5148175;28;20391;-76
2022/03/20 00:58:06;;;;;;;15.85;6.05;;;1.60;99.90;;;;;;5148243;28;20030;-76
2022/03/20 01:00:37;;;;;;;13.88;6.20;;;1.60;99.90;;;;;;5148142;28;20050;-76
2022/03/20 01:03:09;;;;;;;19.27;6.88;;;1.60;99.90;;;;;;5148231;28;20049;-76
2022/03/20 01:05:39;;;;;;;17.80;7.18;;;1.60;99.90;;;;;;5148169;28;20365;-76
2022/03/20 01:08:10;;;;;;;22.95;8.77;;;1.60;99.90;;;;;;5148251;28;20027;-76
2022/03/20 01:10:41;;;;;;;22.73;10.38;;;1.80;99.90;;;;;;5131035;28;20114;-76
2022/03/20 01:13:12;;;;;;;20.42;9.82;;;1.70;99.90;;;;;;5130900;28;20027;-76
2022/03/20 01:15:43;;;;;;;22.10;11.20;;;1.70;99.90;;;;;;5130720;28;20034;-76
2022/03/20 01:18:14;;;;;;;24.83;10.23;;;1.70;99.90;;;;;;5130978;28;20027;-75
2022/03/20 01:20:45;;;;;;;25.05;9.90;;;1.70;99.90;;;;;;5130375;28;20478;-76
2022/03/20 01:23:16;;;;;;;21.42;10.05;;;1.70;99.90;;;;;;5147855;28;20197;-76
2022/03/20 01:25:51;;;;;;;23.00;9.40;;;1.80;99.90;;;;;;5147637;28;20118;-76
2022/03/20 01:28:25;;;;;;;20.65;8.20;;;1.80;99.90;;;;;;5130488;28;20112;-76
2022/03/20 01:30:56;;;;;;;25.05;8.95;;;1.70;99.90;;;;;;5148024;28;20031;-76
2022/03/20 01:33:27;;;;;;;24.98;9.38;;;1.90;99.90;;;;;;5148127;28;20359;-75
2022/03/20 01:36:00;;;;;;;25.40;9.70;;;1.80;99.90;;;;;;5147879;28;20029;-77
2022/03/20 01:38:31;;;;;;;19.02;8.63;;;1.80;99.90;;;;;;5147686;28;20030;-76
2022/03/20 01:41:02;;;;;;;22.52;7.78;;;1.90;99.90;;;;;;5147552;28;20464;-76
2022/03/20 01:43:33;;;;;;;16.95;7.90;;;1.90;99.90;;;;;;5147677;28;20035;-87
2022/03/20 01:46:04;;;;;;;22.52;8.50;;;1.90;99.90;;;;;;5147026;28;20030;-75
2022/03/20 01:48:35;;;;;;;20.63;8.65;;;1.80;99.90;;;;;;5129225;28;20070;-76
2022/03/20 01:51:05;;;;;;;26.17;9.02;;;1.90;99.90;;;;;;5147443;28;20101;-76
2022/03/20 01:53:46;;;;;;;17.77;7.47;;;2.00;99.90;;;;;;5147353;28;20054;-76
2022/03/20 01:56:25;;;;;;;20.80;6.60;;;2.00;99.90;;;;;;5147102;28;20026;-76
2022/03/20 01:59:09;;;;;;;21.42;7.75;;;2.10;99.90;;;;;;5129352;28;20085;-77
2022/03/20 02:01:59;;;;;;;20.10;7.70;;;2.10;99.90;;;;;;5144130;28;20043;-76
2022/03/20 02:04:43;;;;;;;15.32;6.55;;;2.20;99.90;;;;;;5147287;28;20030;-76
2022/03/20 02:07:24;;;;;;;19.92;7.28;;;2.10;99.90;;;;;;5129616;28;20065;-76
2022/03/20 02:09:57;;;;;;;20.13;7.00;;;2.30;99.90;;;;;;5146981;28;20030;-78
2022/03/20 02:12:29;;;;;;;16.80;5.43;;;2.30;99.90;;;;;;5147232;28;20050;-76
2022/03/20 02:15:01;;;;;;;16.05;5.68;;;2.40;99.90;;;;;;5129648;28;20030;-76
2022/03/20 02:17:32;;;;;;;12.18;4.75;;;2.40;99.90;;;;;;5129603;28;20019;-76
2022/03/20 02:20:08;;;;;;;15.45;4.60;;;2.40;99.90;;;;;;5146808;28;20042;-76
2022/03/20 02:22:44;;;;;;;17.17;6.07;;;2.40;99.90;;;;;;5146836;28;20529;-76
2022/03/20 02:25:16;;;;;;;9.63;3.97;;;2.60;99.90;;;;;;5146736;28;20037;-76
2022/03/20 02:27:47;;;;;;;19.70;5.13;;;2.60;99.90;;;;;;5129386;28;20023;-76
2022/03/20 02:30:18;;;;;;;14.55;5.35;;;2.70;99.90;;;;;;5146666;28;20042;-76
2022/03/20 02:32:51;;;;;;;11.52;3.55;;;2.60;99.90;;;;;;5146719;28;20031;-76
2022/03/20 02:35:23;;;;;;;11.00;3.90;;;2.70;99.90;;;;;;5146653;28;20061;-76
2022/03/20 02:37:54;;;;;;;16.38;3.60;;;2.80;99.90;;;;;;5146602;28;20031;-76
2022/03/20 02:40:25;;;;;;;17.33;4.20;;;2.90;99.90;;;;;;5129331;28;20081;-76
2022/03/20 02:42:56;;;;;;;9.77;3.10;;;3.00;99.90;;;;;;5129125;28;20038;-76
2022/03/20 02:45:29;;;;;;;9.43;3.47;;;3.00;99.90;;;;;;5129121;28;20027;-76
2022/03/20 02:48:04;;;;;;;11.40;3.83;;;3.10;99.90;;;;;;5129153;28;20121;-76
2022/03/20 02:50:36;;;;;;;22.52;5.20;;;3.10;99.90;;;;;;5146575;28;20081;-76
2022/03/20 02:53:11;;;;;;;11.13;3.75;;;3.10;99.90;;;;;;5146312;28;20027;-76
2022/03/20 02:55:45;;;;;;;18.05;4.55;;;3.10;99.90;;;;;;5129018;28;20027;-76
2022/03/20 02:58:18;;;;;;;19.58;4.45;;;3.00;99.90;;;;;;5146177;28;20030;-76
2022/03/20 03:00:48;;;;;;;15.07;4.80;;;3.20;99.90;;;;;;5145419;28;20553;-76
2022/03/20 03:03:19;;;;;;;24.35;7.22;;;3.10;99.90;;;;;;5146627;28;20030;-76
2022/03/20 03:05:50;;;;;;;9.85;3.75;;;3.10;99.90;;;;;;5128860;28;20034;-76
2022/03/20 03:11:11;;;;;;;10.27;3.43;;;3.30;99.90;;;;;;5146584;28;20034;-76
2022/03/20 03:13:42;;;;;;;10.80;3.83;;;3.30;99.90;;;;;;5128433;28;20483;-76
2022/03/20 03:16:14;;;;;;;12.52;3.33;;;3.40;99.90;;;;;;5128794;28;20027;-76
2022/03/20 03:18:47;;;;;;;12.45;3.60;;;3.30;99.90;;;;;;5128885;28;20394;-76
2022/03/20 03:21:18;;;;;;;14.40;3.55;;;3.50;99.90;;;;;;5128586;28;20065;-76
2022/03/20 03:23:49;;;;;;;11.85;3.38;;;3.50;99.90;;;;;;5146120;28;20026;-76
2022/03/20 03:26:19;;;;;;;9.57;3.03;;;3.50;99.90;;;;;;5128674;28;20027;-76
2022/03/20 03:28:51;;;;;;;23.85;4.03;;;3.40;99.90;;;;;;5128616;28;20027;-84
2022/03/20 03:31:21;;;;;;;11.88;3.25;;;3.40;99.90;;;;;;5145995;28;20117;-76
2022/03/20 03:36:42;;;;;;;11.00;3.78;;;3.50;99.90;;;;;;5146285;28;20081;-76
2022/03/20 03:39:13;;;;;;;15.23;3.22;;;3.40;99.90;;;;;;5146039;28;20054;-76
2022/03/20 03:41:43;;;;;;;14.82;3.38;;;3.50;99.90;;;;;;5145895;28;20031;-76
2022/03/20 03:44:14;;;;;;;13.07;3.10;;;3.30;99.90;;;;;;5145983;28;20027;-84
2022/03/20 03:46:45;;;;;;;9.63;3.53;;;3.40;99.90;;;;;;5145802;28;20023;-76
2022/03/20 03:49:16;;;;;;;8.40;2.95;;;3.50;99.90;;;;;;5145890;28;20391;-76
2022/03/20 03:51:47;;;;;;;8.18;2.83;;;3.50;99.90;;;;;;5145811;28;20105;-84
2022/03/20 03:54:18;;;;;;;16.55;4.22;;;3.60;99.90;;;;;;5145790;28;20026;-76
2022/03/20 03:56:48;;;;;;;10.70;2.92;;;3.50;99.90;;;;;;5128016;28;20034;-76
2022/03/20 03:59:19;;;;;;;9.73;2.55;;;3.50;99.90;;;;;;5128178;28;20054;-77
2022/03/20 04:01:50;;;;;;;15.55;3.53;;;3.60;99.90;;;;;;5128200;28;20039;-80
2022/03/20 04:04:21;;;;;;;16.38;3.63;;;3.60;99.90;;;;;;5145624;28;20475;-76
2022/03/20 04:06:52;;;;;;;9.57;3.70;;;3.50;99.90;;;;;;5145668;28;20023;-76
2022/03/20 04:09:24;;;;;;;15.02;3.63;;;3.60;99.90;;;;;;5145586;28;20490;-76
2022/03/20 04:11:54;;;;;;;12.45;3.13;;;3.60;99.90;;;;;;5147246;28;20042;-76
2022/03/20 04:14:25;;;;;;;15.35;3.88;;;3.60;99.90;;;;;;5149489;28;20030;-76
2022/03/20 04:16:57;;;;;;;10.05;3.40;;;3.70;99.90;;;;;;5131522;28;20026;-76
2022/03/20 04:19:28;;;;;;;12.05;3.08;;;3.60;99.90;;;;;;5149085;28;20089;-76
2022/03/20 04:22:02;;;;;;;10.60;3.20;;;3.50;99.90;;;;;;5148638;28;20038;-77
2022/03/20 04:24:33;;;;;;;8.27;2.65;;;3.50;99.90;;;;;;5131832;28;20093;-76
2022/03/20 04:27:05;;;;;;;14.30;3.45;;;3.60;99.90;;;;;;5131398;28;20022;-76
2022/03/20 04:29:35;;;;;;;18.98;3.90;;;3.60;99.90;;;;;;5131566;28;20043;-76
2022/03/20 04:32:07;;;;;;;16.42;3.80;;;3.60;99.90;;;;;;5149056;28;20023;-76
2022/03/20 04:34:38;;;;;;;10.35;3.30;;;3.60;99.90;;;;;;5148880;28;20414;-76
2022/03/20 04:37:10;;;;;;;11.43;3.45;;;3.70;99.90;;;;;;5148906;28;20529;-76
2022/03/20 04:39:41;;;;;;;14.18;4.13;;;3.60;99.90;;;;;;5131348;28;20035;-84
2022/03/20 04:42:13;;;;;;;19.50;4.10;;;3.70;99.90;;;;;;5148467;28;20543;-76
2022/03/20 04:44:44;;;;;;;8.45;2.63;;;3.70;99.90;;;;;;5148730;28;20105;-76
2022/03/20 04:58:31;;;;;;;13.15;3.08;;;3.80;99.90;;;;;;5148678;28;20130;-76
2022/03/20 05:01:03;;;;;;;12.13;3.50;;;4.00;99.90;;;;;;5147882;28;20046;-76
2022/03/20 05:03:35;;;;;;;14.52;4.55;;;3.90;99.90;;;;;;5130984;28;20047;-83
2022/03/20 05:06:06;;;;;;;20.92;4.63;;;4.00;99.90;;;;;;5148229;28;20019;-82
2022/03/20 05:08:36;;;;;;;13.43;4.45;;;4.10;99.90;;;;;;5148305;28;20033;-82
2022/03/20 05:13:56;;;;;;;13.23;3.58;;;4.30;99.90;;;;;;5148288;28;20110;-76
2022/03/20 05:16:28;;;;;;;19.33;4.22;;;4.30;99.90;;;;;;5148280;28;20106;-82
2022/03/20 05:18:58;;;;;;;10.30;2.90;;;4.20;99.90;;;;;;5148047;28;20030;-84
2022/03/20 05:21:29;;;;;;;15.25;4.30;;;4.30;99.90;;;;;;5147870;28;20131;-76
2022/03/20 05:24:00;;;;;;;14.65;4.30;;;4.50;99.90;;;;;;5148098;28;20054;-76
2022/03/20 05:26:31;;;;;;;15.10;4.65;;;4.60;99.90;;;;;;5147980;28;20025;-81
2022/03/20 05:29:01;;;;;;;20.13;5.00;;;4.50;99.90;;;;;;5147803;28;20472;-76
2022/03/20 05:31:32;;;;;;;13.32;4.03;;;4.50;99.90;;;;;;5148104;28;20031;-82
2022/03/20 05:34:03;;;;;;;16.15;4.93;;;4.50;99.90;;;;;;5130039;28;20030;-82
2022/03/20 05:36:34;;;;;;;12.68;3.90;;;4.30;99.90;;;;;;5147822;28;20062;-83
2022/03/20 05:39:05;;;;;;;15.73;4.93;;;4.60;99.90;;;;;;5130219;28;20034;-76
2022/03/20 05:41:51;;;;;;;13.73;4.55;;;4.70;99.90;;;;;;5147504;28;20023;-76
2022/03/20 05:44:26;;;;;;;14.35;3.60;;;4.70;99.90;;;;;;5130307;28;20037;-82
2022/03/20 05:47:00;;;;;;;11.48;3.63;;;4.80;99.90;;;;;;5130188;28;20483;-75
2022/03/20 05:49:31;;;;;;;10.57;3.67;;;4.20;99.90;;;;;;5130094;28;20077;-76
2022/03/20 05:52:02;;;;;;;10.30;3.30;;;4.40;99.90;;;;;;5147412;28;20022;-76
2022/03/20 05:54:33;;;;;;;11.00;3.95;;;4.60;99.90;;;;;;5147529;28;20027;-81
2022/03/20 05:59:55;;;;;;;12.40;3.90;;;4.60;99.90;;;;;;5147318;28;20141;-76
2022/03/20 06:02:26;;;;;;;11.65;3.60;;;4.40;99.90;;;;;;5147516;28;20042;-80
2022/03/20 06:04:57;;;;;;;12.35;3.60;;;4.50;99.90;;;;;;5129484;28;20113;-76
2022/03/20 06:07:29;;;;;;;14.77;4.00;;;4.30;99.90;;;;;;5129373;28;20030;-76
2022/03/20 06:10:00;;;;;;;15.77;3.72;;;4.40;99.90;;;;;;5129577;28;20019;-75
2022/03/20 06:12:31;;;;;;;19.00;4.07;;;4.50;99.90;;;;;;5147111;28;20081;-75
2022/03/20 06:15:01;;;;;;;13.55;3.85;;;4.50;99.90;;;;;;5129903;28;20058;-75
2022/03/20 06:17:34;;;;;;;13.32;3.78;;;4.80;99.90;;;;;;5146865;28;20058;-81
2022/03/20 06:20:07;;;;;;;13.52;4.07;;;5.20;99.90;;;;;;5129335;28;20053;-82
2022/03/20 06:22:37;;;;;;;14.73;3.58;;;5.30;99.90;;;;;;5146516;28;20038;-84
2022/03/20 06:25:09;;;;;;;9.18;3.70;;;5.20;99.90;;;;;;5146624;28;20223;-84
2022/03/20 06:27:48;;;;;;;12.43;4.32;;;4.90;99.90;;;;;;5146708;28;20494;-82
2022/03/20 06:30:21;;;;;;;9.13;3.58;;;4.50;99.90;;;;;;5129649;28;20542;-83
2022/03/20 06:32:52;;;;;;;13.13;5.82;;;5.10;99.90;;;;;;5129538;28;20085;-85
2022/03/20 06:35:23;;;;;;;9.73;3.95;;;5.20;99.90;;;;;;5145846;28;20084;-83
2022/03/20 06:37:54;;;;;;;19.85;4.40;;;5.00;99.90;;;;;;5129259;28;20035;-77
2022/03/20 06:40:25;;;;;;;15.02;4.80;;;5.10;99.90;;;;;;5146485;28;20023;-80
2022/03/20 06:42:56;;;;;;;16.02;4.40;;;5.50;99.90;;;;;;5129347;28;20038;-77
2022/03/20 06:45:26;;;;;;;18.38;5.15;;;5.60;99.90;;;;;;5129172;28;20023;-83
2022/03/20 06:47:59;;;;;;;18.40;5.90;;;5.70;99.90;;;;;;5145963;28;20090;-81
2022/03/20 06:50:30;;;;;;;10.88;4.40;;;5.60;99.90;;;;;;5146446;28;20027;-77
2022/03/20 06:53:04;;;;;;;18.05;4.10;;;5.30;99.90;;;;;;5145857;28;20038;-75
2022/03/20 06:55:35;;;;;;;17.95;4.07;;;4.80;99.90;;;;;;5146542;28;20023;-76
2022/03/20 06:58:06;;;;;;;10.32;3.40;;;5.50;99.90;;;;;;5146390;28;20387;-75
2022/03/20 07:00:37;;;;;;;10.65;3.67;;;5.00;99.90;;;;;;5145630;28;20054;-83
2022/03/20 07:03:09;;;;;;;18.77;4.15;;;5.30;99.90;;;;;;5146204;28;20073;-77
2022/03/20 07:05:40;;;;;;;12.88;4.18;;;5.60;99.90;;;;;;5128871;28;20027;-85
2022/03/20 07:08:10;;;;;;;15.80;4.20;;;5.60;99.90;;;;;;5146481;28;20035;-76
2022/03/20 07:10:42;;;;;;;13.07;3.85;;;5.50;99.90;;;;;;5128909;28;20103;-76
2022/03/20 07:16:02;;;;;;;8.25;3.42;;;5.90;99.90;;;;;;5146223;28;20038;-76
2022/03/20 07:18:36;;;;;;;16.83;4.38;;;5.00;99.90;;;;;;5128828;28;20027;-76
2022/03/20 07:21:08;;;;;;;12.68;4.25;;;5.70;99.90;;;;;;5128745;28;20057;-76
2022/03/20 07:23:39;;;;;;;20.30;5.40;;;5.80;99.90;;;;;;5128537;28;20137;-76
2022/03/20 07:31:49;;;;;;;10.13;3.45;;;5.70;99.90;;;;;;5146256;28;20058;-86
2022/03/20 07:34:20;;;;;;;13.07;4.28;;;4.90;99.90;;;;;;5146265;28;20089;-81
2022/03/20 07:36:51;;;;;;;16.75;3.38;;;4.90;99.90;;;;;;5146222;28;20026;-81
2022/03/20 07:39:22;;;;;;;10.55;3.38;;;5.10;99.90;;;;;;5128893;28;20396;-88
2022/03/20 07:41:52;;;;;;;12.35;3.50;;;5.20;99.90;;;;;;5145987;28;20117;-83
2022/03/20 07:44:25;;;;;;;10.30;3.83;;;5.10;99.90;;;;;;5146173;28;20023;-76
2022/03/20 07:46:56;;;;;;;15.07;3.60;;;5.40;99.90;;;;;;5147730;28;20054;-86
2022/03/20 07:49:27;;;;;;;12.57;3.50;;;5.40;99.90;;;;;;5132559;28;20471;-87
2022/03/20 07:51:58;;;;;;;9.65;3.55;;;5.30;99.90;;;;;;5132129;28;20027;-77
2022/03/20 07:54:29;;;;;;;8.35;3.17;;;5.30;99.90;;;;;;5132435;28;20027;-76
2022/03/20 07:57:00;;;;;;;21.05;4.43;;;5.80;99.90;;;;;;5132440;28;20387;-88
2022/03/20 07:59:31;;;;;;;11.27;5.15;;;5.60;99.90;;;;;;5146498;28;20038;-77
2022/03/20 08:02:03;;;;;;;14.05;3.80;;;5.80;99.90;;;;;;5148609;28;20399;-77
2022/03/20 08:04:33;;;;;;;10.70;3.65;;;5.70;99.90;;;;;;5148515;28;20529;-79
2022/03/20 08:07:05;;;;;;;9.95;3.63;;;6.00;99.90;;;;;;5148982;28;20613;-80
2022/03/20 08:09:36;;;;;;;7.60;3.83;;;5.30;99.90;;;;;;5149087;28;20031;-79
2022/03/20 08:12:07;;;;;;;8.85;3.20;;;5.10;99.90;;;;;;5131909;28;20031;-77
2022/03/20 08:14:39;;;;;;;8.18;2.75;;;5.00;99.90;;;;;;5149347;28;20030;-77
2022/03/20 08:17:10;;;;;;;13.00;3.78;;;5.70;99.90;;;;;;5131896;28;20030;-78
2022/03/20 08:19:41;;;;;;;8.80;3.10;;;5.60;99.90;;;;;;5132585;28;20403;-76
2022/03/20 08:22:11;;;;;;;7.60;2.85;;;6.30;99.90;;;;;;5148930;28;20027;-77
2022/03/20 08:24:46;;;;;;;9.73;3.10;;;5.90;99.90;;;;;;5148566;28;20034;-75
2022/03/20 08:27:19;;;;;;;8.93;3.70;;;5.40;99.90;;;;;;5148966;28;20023;-74
2022/03/20 08:29:50;;;;;;;12.98;3.72;;;5.40;99.90;;;;;;5148895;28;20023;-82
2022/03/20 08:32:22;;;;;;;8.20;3.00;;;6.10;99.90;;;;;;5148782;28;20062;-76
2022/03/20 08:34:52;;;;;;;10.13;3.20;;;6.10;99.90;;;;;;5148690;28;20029;-75
2022/03/20 08:37:23;;;;;;;9.77;3.60;;;5.60;99.90;;;;;;5148892;28;20030;-74
2022/03/20 08:39:54;;;;;;;6.93;3.08;;;5.30;99.90;;;;;;5148467;28;20026;-74
2022/03/20 08:42:25;;;;;;;13.98;3.47;;;5.20;99.90;;;;;;5147559;28;20398;-75
2022/03/20 08:44:56;;;;;;;43.80;23.45;;;5.50;99.90;;;;;;5148653;28;20027;-74
2022/03/20 08:47:27;;;;;;;26.90;15.15;;;6.20;99.90;;;;;;5148491;28;20466;-75
2022/03/20 08:49:58;;;;;;;26.42;12.43;;;6.50;99.90;;;;;;5148464;28;20026;-75
2022/03/20 08:52:29;;;;;;;15.80;8.13;;;6.50;99.90;;;;;;5148644;28;20031;-76
2022/03/20 08:55:02;;;;;;;18.05;10.82;;;6.60;99.90;;;;;;5148064;28;20053;-77
2022/03/20 08:57:32;;;;;;;15.60;6.32;;;6.70;99.90;;;;;;5130476;28;20522;-76
2022/03/20 09:00:04;;;;;;;14.93;10.25;;;5.80;99.90;;;;;;5147524;28;20117;-75
2022/03/20 09:02:35;;;;;;;27.58;16.05;;;5.50;99.90;;;;;;5145986;28;20058;-75
2022/03/20 09:05:12;;;;;;;16.92;7.03;;;5.70;99.90;;;;;;5134272;28;20038;-76
2022/03/20 09:07:47;;;;;;;11.60;4.78;;;5.40;99.90;;;;;;5144398;28;20039;-75
2022/03/20 09:10:19;;;;;;;8.32;3.22;;;5.50;99.90;;;;;;5143838;28;20081;-75
2022/03/20 09:12:55;;;;;;;14.65;4.72;;;5.60;99.90;;;;;;5143773;28;20038;-76
2022/03/20 09:15:28;;;;;;;9.55;3.20;;;5.90;99.90;;;;;;5142756;28;20026;-76
2022/03/20 09:20:49;;;;;;;6.97;2.60;;;5.30;99.90;;;;;;5144622;28;20038;-75
2022/03/20 09:23:20;;;;;;;8.45;2.50;;;5.50;99.90;;;;;;5143763;28;20118;-76
2022/03/20 09:25:52;;;;;;;7.32;3.00;;;5.40;99.90;;;;;;5143242;28;20059;-75
2022/03/20 09:28:22;;;;;;;12.25;4.13;;;5.90;99.90;;;;;;5143035;28;20031;-76
2022/03/20 09:30:53;;;;;;;9.65;2.50;;;6.10;99.90;;;;;;5125143;28;20170;-75
2022/03/20 09:33:25;;;;;;;9.75;3.10;;;5.40;99.90;;;;;;5143058;28;20027;-75
2022/03/20 09:35:55;;;;;;;10.48;2.70;;;6.00;99.90;;;;;;5147391;28;20414;-78
2022/03/20 09:38:26;;;;;;;12.02;4.25;;;5.60;99.90;;;;;;5129539;28;20011;-76
2022/03/20 09:41:03;;;;;;;10.98;5.80;;;5.30;99.90;;;;;;5146340;28;20027;-73
2022/03/20 09:43:36;;;;;;;12.82;3.92;;;5.60;99.90;;;;;;5147566;28;20038;-76
2022/03/20 09:46:07;;;;;;;9.77;4.18;;;5.40;99.90;;;;;;5147561;28;20050;-73
2022/03/20 09:48:38;;;;;;;13.30;4.68;;;5.40;99.90;;;;;;5147286;28;20580;-74
2022/03/20 09:51:09;;;;;;;13.65;4.97;;;5.40;99.90;;;;;;5146945;28;20031;-77
2022/03/20 09:53:40;;;;;;;12.73;4.05;;;5.40;99.90;;;;;;5126788;28;20545;-82
2022/03/20 09:56:12;;;;;;;14.43;4.63;;;5.40;99.90;;;;;;5127245;29;20032;-83
2022/03/20 09:58:43;;;;;;;12.45;4.13;;;5.20;99.90;;;;;;5136324;28;20173;-81
2022/03/20 10:01:14;;;;;;;12.13;5.22;;;5.10;99.90;;;;;;5146282;28;20142;-75
2022/03/20 10:03:46;;;;;;;13.02;4.70;;;5.20;99.90;;;;;;5138841;28;20162;-75
2022/03/20 10:06:17;;;;;;;12.30;3.92;;;5.00;99.90;;;;;;5146614;28;20022;-75
2022/03/20 10:09:00;;;;;;;10.50;3.47;;;5.30;99.90;;;;;;5145728;28;20463;-75
2022/03/20 10:11:32;;;;;;;10.85;3.30;;;5.10;99.90;;;;;;5146023;28;20113;-79
2022/03/20 10:14:19;;;;;;;9.43;3.30;;;5.40;99.90;;;;;;5130040;28;20194;-80
2022/03/20 10:17:09;;;;;;;9.90;3.28;;;5.40;99.90;;;;;;5146935;28;20027;-75
2022/03/20 10:19:40;;;;;;;12.82;3.28;;;4.90;99.90;;;;;;5146738;28;20019;-74
2022/03/20 10:22:14;;;;;;;13.93;4.13;;;5.10;99.90;;;;;;5146475;28;20118;-79
2022/03/20 10:24:51;;;;;;;9.02;2.85;;;5.30;99.90;;;;;;5146634;28;20118;-73
2022/03/20 10:27:23;;;;;;;15.80;3.60;;;5.20;99.90;;;;;;5129688;28;20023;-75
2022/03/20 10:29:58;;;;;;;11.68;3.55;;;4.90;99.90;;;;;;5146580;28;20027;-77
2022/03/20 10:32:30;;;;;;;7.43;2.70;;;5.20;99.90;;;;;;5146541;28;20035;-78
2022/03/20 10:35:03;;;;;;;12.13;3.10;;;4.80;99.90;;;;;;5146130;28;20030;-74
2022/03/20 10:37:53;;;;;;;14.00;3.53;;;4.80;99.90;;;;;;5128997;28;20038;-74
2022/03/20 10:40:25;;;;;;;17.30;9.32;;;4.90;99.90;;;;;;5129315;28;20476;-76
2022/03/20 10:43:17;;;;;;;13.10;4.45;;;5.10;99.90;;;;;;5146352;28;20043;-75
2022/03/20 10:45:51;;;;;;;9.20;3.85;;;5.10;99.90;;;;;;5146496;28;20050;-75
2022/03/20 10:48:30;;;;;;;13.30;3.53;;;5.20;99.90;;;;;;5146429;28;20039;-74
2022/03/20 10:51:02;;;;;;;7.72;3.65;;;5.30;99.90;;;;;;5126510;29;20027;-77
2022/03/20 10:53:34;;;;;;;15.23;3.97;;;4.90;99.90;;;;;;5126611;29;20065;-81
2022/03/20 10:56:09;;;;;;;11.55;3.97;;;5.00;99.90;;;;;;5125066;29;20035;-78
2022/03/20 10:58:40;;;;;;;14.93;3.80;;;5.20;99.90;;;;;;5125065;29;20035;-79
2022/03/20 11:01:12;;;;;;;13.82;3.05;;;5.10;99.90;;;;;;5126374;29;20094;-80
2022/03/20 11:03:44;;;;;;;11.82;4.13;;;4.80;99.90;;;;;;5126220;29;20951;-78
2022/03/20 11:06:15;;;;;;;8.75;3.70;;;4.80;99.90;;;;;;5126308;29;20035;-73
2022/03/20 11:08:46;;;;;;;11.45;4.03;;;5.00;99.90;;;;;;5126376;28;20082;-74
2022/03/20 11:11:19;;;;;;;13.00;3.38;;;4.80;99.90;;;;;;5108933;29;20027;-73
2022/03/20 11:13:52;;;;;;;16.55;4.90;;;4.70;99.90;;;;;;5125650;29;20103;-80
2022/03/20 11:16:25;;;;;;;11.80;3.92;;;4.60;99.90;;;;;;5126055;29;20082;-81
2022/03/20 11:18:59;;;;;;;8.82;2.75;;;4.90;99.90;;;;;;5144867;28;20463;-73
2022/03/20 11:21:33;;;;;;;12.43;3.13;;;4.60;99.90;;;;;;5131186;28;20037;-73
2022/03/20 11:24:05;;;;;;;13.90;4.15;;;4.70;99.90;;;;;;5149521;28;20096;-74
2022/03/20 11:26:40;;;;;;;14.50;4.68;;;4.90;99.90;;;;;;5149694;28;20089;-73
2022/03/20 11:29:12;;;;;;;8.95;3.92;;;5.00;99.90;;;;;;5128536;29;20032;-73
2022/03/20 11:31:44;;;;;;;13.98;5.82;;;4.90;99.90;;;;;;5141285;28;20042;-76
2022/03/20 11:34:17;;;;;;;15.05;6.72;;;4.90;99.90;;;;;;5128671;29;20031;-81
2022/03/20 11:37:21;;;;;;;16.02;4.20;;;5.40;99.90;;;;;;5129859;28;20019;-76
2022/03/20 11:40:21;;;;;;;7.68;3.55;;;5.10;99.90;;;;;;5107795;28;20035;-73
2022/03/20 11:43:15;;;;;;;13.07;4.03;;;5.00;99.90;;;;;;5129765;28;20042;-74
2022/03/20 11:46:21;;;;;;;7.60;2.80;;;5.90;99.90;;;;;;5123424;28;20031;-73
2022/03/20 11:49:17;;;;;;;11.05;3.55;;;5.10;99.90;;;;;;5129870;28;20051;-73
2022/03/20 11:52:12;;;;;;;18.17;4.47;;;4.80;99.90;;;;;;5129905;28;20104;-73
2022/03/20 11:54:43;;;;;;;10.77;3.30;;;4.90;99.90;;;;;;5129538;28;20140;-83
2022/03/20 11:57:29;;;;;;;9.68;3.03;;;4.90;99.90;;;;;;5128545;28;20023;-73
2022/03/20 12:00:13;;;;;;;15.88;3.35;;;5.00;99.90;;;;;;5129321;28;20117;-73
2022/03/20 12:03:11;;;;;;;10.63;3.22;;;5.30;99.90;;;;;;5129322;28;20051;-74
2022/03/20 12:05:54;;;;;;;6.88;2.63;;;5.10;99.90;;;;;;5129573;28;20463;-73
2022/03/20 12:08:40;;;;;;;9.55;2.80;;;4.90;99.90;;;;;;5129417;28;20063;-74
2022/03/20 12:11:28;;;;;;;6.05;2.78;;;4.80;99.90;;;;;;5129412;28;20078;-73
2022/03/20 12:14:24;;;;;;;12.27;3.15;;;4.90;99.90;;;;;;5128171;28;20027;-73
2022/03/20 12:16:58;;;;;;;10.05;3.13;;;4.90;99.90;;;;;;5137491;28;20517;-87
2022/03/20 12:19:41;;;;;;;11.98;5.38;;;4.90;99.90;;;;;;5149364;28;20022;-82
2022/03/20 12:22:16;;;;;;;18.88;10.05;;;4.80;99.90;;;;;;5149171;28;20491;-85
2022/03/20 12:24:51;;;;;;;12.95;4.70;;;4.90;99.90;;;;;;5149625;28;20352;-74
2022/03/20 12:27:22;;;;;;;10.98;4.95;;;4.80;99.90;;;;;;5147988;28;20487;-83
2022/03/20 12:30:02;;;;;;;14.13;3.65;;;4.70;99.90;;;;;;5149163;28;20034;-74
2022/03/20 12:32:48;;;;;;;9.88;3.55;;;4.90;99.90;;;;;;5148489;28;20037;-77
2022/03/20 12:35:25;;;;;;;13.52;3.78;;;4.80;99.90;;;;;;5149376;28;20027;-82
2022/03/20 12:37:57;;;;;;;16.27;4.78;;;4.60;99.90;;;;;;5148903;28;20038;-74
2022/03/20 12:40:32;;;;;;;13.10;5.07;;;5.00;99.90;;;;;;5148790;28;20026;-85
2022/03/20 12:43:07;;;;;;;13.32;4.65;;;5.10;99.90;;;;;;5147562;28;20043;-74
2022/03/20 12:45:47;;;;;;;13.40;5.03;;;4.90;99.90;;;;;;5147888;28;20106;-85
2022/03/20 12:48:21;;;;;;;9.95;2.85;;;4.80;99.90;;;;;;5148072;28;20023;-73
2022/03/20 12:50:58;;;;;;;13.38;3.50;;;4.60;99.90;;;;;;5148086;28;20471;-73
2022/03/20 12:53:38;;;;;;;10.23;3.05;;;4.70;99.90;;;;;;5148294;28;20034;-73
2022/03/20 12:56:13;;;;;;;10.35;3.22;;;4.70;99.90;;;;;;5128458;29;20087;-74
2022/03/20 12:58:45;;;;;;;11.55;3.42;;;4.80;99.90;;;;;;5124433;28;20042;-75
2022/03/20 13:01:17;;;;;;;4.45;2.42;;;4.90;99.90;;;;;;5148553;28;20097;-83
2022/03/20 13:03:48;;;;;;;13.13;4.03;;;5.00;99.90;;;;;;5147466;28;20071;-73
2022/03/20 13:06:26;;;;;;;12.27;2.70;;;5.50;99.90;;;;;;5148383;28;20026;-73
2022/03/20 13:08:57;;;;;;;11.48;4.38;;;5.40;99.90;;;;;;5147938;28;20053;-73
2022/03/20 13:11:48;;;;;;;9.07;3.42;;;5.20;99.90;;;;;;5148014;28;20034;-77
2022/03/20 13:14:21;;;;;;;9.23;2.97;;;4.70;99.90;;;;;;5148070;28;20031;-83
2022/03/20 13:16:53;;;;;;;16.38;3.60;;;4.70;99.90;;;;;;5148076;28;20025;-73
2022/03/20 13:19:25;;;;;;;7.82;3.30;;;4.70;99.90;;;;;;5130703;28;20030;-73
2022/03/20 13:22:00;;;;;;;10.35;4.88;;;4.50;99.90;;;;;;5130508;28;20027;-73
2022/03/20 13:24:35;;;;;;;8.88;3.17;;;4.60;99.90;;;;;;5148230;28;20035;-74
2022/03/20 13:27:08;;;;;;;11.23;4.78;;;4.60;99.90;;;;;;5145619;28;20513;-73
2022/03/20 13:29:49;;;;;;;8.90;4.05;;;4.50;99.90;;;;;;5144128;28;20035;-80
2022/03/20 13:32:21;;;;;;;11.75;5.03;;;4.40;99.90;;;;;;5147837;28;20031;-80
2022/03/20 13:34:52;;;;;;;14.50;8.30;;;4.40;99.90;;;;;;5147702;28;20015;-74
2022/03/20 13:37:24;;;;;;;11.57;4.85;;;4.30;99.90;;;;;;5147256;28;20042;-79
2022/03/20 13:39:55;;;;;;;11.63;9.00;;;4.20;99.90;;;;;;5147538;28;20022;-74
2022/03/20 13:42:29;;;;;;;15.13;7.72;;;4.20;99.90;;;;;;5147420;28;20059;-74
2022/03/20 13:45:00;;;;;;;9.90;4.60;;;4.20;99.90;;;;;;5130003;28;20019;-80
2022/03/20 13:47:32;;;;;;;9.32;4.18;;;4.30;99.90;;;;;;5147514;28;20046;-79
2022/03/20 13:50:04;;;;;;;8.95;3.88;;;4.40;99.90;;;;;;5147343;28;20074;-80
2022/03/20 13:52:35;;;;;;;11.98;4.07;;;4.40;99.90;;;;;;5130054;28;20491;-76